Time;durP1;ratioP1;P1;durP2;ratioP2;P2;SDS_P1;SDS_P2;PMS_P1;PMS_P2;Temp;Humidity;BMP_temperature;BMP_pressure;BME280_temperature;BME280_humidity;BME280_pressure;Samples;Min_cycle;Max_cycle;Signal;HPM_P1;HPM_P2
2022/08/02 00:01:27;;;;;;;27.77;21.08;;;;;;;17.92;74.69;99038.53;4976247;28;20547;-77
2022/08/02 00:03:53;;;;;;;25.98;20.45;;;;;;;17.85;75.03;99026.75;4976285;28;20403;-76
2022/08/02 00:06:19;;;;;;;29.08;20.08;;;;;;;17.86;75.51;99040.06;4976356;28;20043;-76
2022/08/02 00:08:45;;;;;;;25.75;20.67;;;;;;;17.78;75.25;99036.56;4991391;28;20047;-76
2022/08/02 00:11:11;;;;;;;24.10;20.27;;;;;;;17.78;75.79;99041.97;4976239;28;20109;-75
2022/08/02 00:13:37;;;;;;;26.25;20.05;;;;;;;17.73;75.59;99029.81;4976140;28;20081;-75
2022/08/02 00:16:03;;;;;;;26.85;21.20;;;;;;;17.80;75.82;99038.09;4991142;28;20053;-75
2022/08/02 00:18:29;;;;;;;31.00;21.38;;;;;;;17.70;75.92;99040.97;4990727;28;20061;-76
2022/08/02 00:20:55;;;;;;;30.30;21.65;;;;;;;17.68;76.29;99037.59;4991198;28;20053;-76
2022/08/02 00:23:21;;;;;;;26.88;20.95;;;;;;;17.71;75.97;99039.97;4991159;28;20042;-76
2022/08/02 00:25:47;;;;;;;24.58;20.80;;;;;;;17.66;76.26;99042.34;4975918;28;20047;-76
2022/08/02 00:28:12;;;;;;;26.48;20.75;;;;;;;17.66;76.65;99049.59;4990684;28;20135;-76
2022/08/02 00:30:38;;;;;;;26.85;20.65;;;;;;;17.63;76.12;99039.97;4974373;28;20099;-78
2022/08/02 00:33:05;;;;;;;24.95;20.92;;;;;;;17.64;76.81;99055.19;4958668;28;20138;-76
2022/08/02 00:35:31;;;;;;;32.40;21.45;;;;;;;17.63;76.87;99060.75;4974837;28;20055;-76
2022/08/02 00:37:57;;;;;;;32.40;22.38;;;;;;;17.63;76.62;99055.34;4975781;28;20054;-76
2022/08/02 00:40:23;;;;;;;26.00;22.02;;;;;;;17.53;76.92;99060.97;4974400;28;20043;-77
2022/08/02 00:43:08;;;;;;;28.25;22.25;;;;;;;17.50;77.27;99058.63;4974414;28;20054;-76
2022/08/02 00:45:37;;;;;;;36.22;22.35;;;;;;;17.52;77.08;99064.69;4974248;28;20077;-78
2022/08/02 00:48:04;;;;;;;29.30;22.10;;;;;;;17.45;77.05;99047.47;4975833;28;20067;-76
2022/08/02 00:50:31;;;;;;;28.95;22.35;;;;;;;17.52;76.95;99064.69;4958401;28;20053;-76
2022/08/02 00:52:57;;;;;;;26.95;22.48;;;;;;;17.52;76.81;99061.13;4990708;28;20057;-76
2022/08/02 00:55:23;;;;;;;32.22;22.90;;;;;;;17.51;76.70;99054.91;4958025;28;20043;-76
2022/08/02 00:57:49;;;;;;;27.70;23.05;;;;;;;17.47;77.06;99058.97;4990404;28;20042;-76
2022/08/02 01:00:15;;;;;;;28.85;22.35;;;;;;;17.53;76.97;99076.34;4990191;28;20108;-77
2022/08/02 01:02:41;;;;;;;32.40;22.50;;;;;;;17.40;77.22;99060.66;4974169;28;20522;-76
2022/08/02 01:05:07;;;;;;;29.50;23.45;;;;;;;17.40;77.07;99069.63;4975435;28;20050;-76
2022/08/02 01:07:33;;;;;;;30.48;22.92;;;;;;;17.37;77.42;99061.84;4975278;28;20038;-75
2022/08/02 01:09:59;;;;;;;31.35;23.27;;;;;;;17.37;77.26;99072.66;4973660;28;20113;-76
2022/08/02 01:12:26;;;;;;;31.65;22.92;;;;;;;17.50;77.23;99072.13;4990086;28;20138;-76
2022/08/02 01:14:54;;;;;;;28.77;22.88;;;;;;;17.59;76.38;99072.94;4989799;28;20047;-76
2022/08/02 01:17:35;;;;;;;30.03;22.40;;;;;;;17.67;76.54;99067.50;4973810;28;20051;-76
2022/08/02 01:20:15;;;;;;;29.48;21.58;;;;;;;17.71;76.44;99069.69;4973768;28;20379;-76
2022/08/02 01:22:47;;;;;;;29.50;22.42;;;;;;;17.81;76.16;99079.47;4989953;28;20043;-77
2022/08/02 01:25:55;;;;;;;30.30;23.08;;;;;;;17.78;76.17;99074.41;4975010;28;20081;-76
2022/08/02 01:28:41;;;;;;;30.55;23.00;;;;;;;17.94;75.65;99074.34;4974158;28;20493;-76
2022/08/02 01:31:14;;;;;;;27.58;22.02;;;;;;;17.96;75.29;99075.00;4973176;28;20141;-77
2022/08/02 01:33:50;;;;;;;28.80;20.63;;;;;;;18.07;75.41;99074.63;4973992;28;20494;-76
2022/08/02 01:36:19;;;;;;;26.65;21.58;;;;;;;18.15;75.24;99073.72;4973392;28;20046;-76
2022/08/02 01:38:52;;;;;;;29.45;20.83;;;;;;;18.09;75.04;99074.44;4973251;28;20082;-76
2022/08/02 01:41:22;;;;;;;39.05;22.58;;;;;;;18.21;74.69;99089.25;4973116;28;20534;-76
2022/08/02 01:43:52;;;;;;;28.55;21.33;;;;;;;18.25;74.64;99092.47;4973103;28;20042;-77
2022/08/02 01:46:20;;;;;;;28.67;20.50;;;;;;;18.15;74.35;99077.28;4974550;28;20418;-77
2022/08/02 01:48:47;;;;;;;27.58;21.23;;;;;;;18.30;74.29;99084.63;4972968;28;20043;-77
2022/08/02 01:51:16;;;;;;;29.08;21.00;;;;;;;18.34;73.68;99099.50;4989392;28;20077;-77
2022/08/02 01:53:47;;;;;;;29.67;22.25;;;;;;;18.13;74.17;99089.31;4989634;28;20050;-76
2022/08/02 01:56:15;;;;;;;27.83;19.67;;;;;;;18.20;74.65;99095.66;4972238;28;20486;-76
2022/08/02 01:58:42;;;;;;;30.55;21.60;;;;;;;18.34;74.00;99102.19;4973517;28;20054;-76
2022/08/02 02:01:10;;;;;;;29.30;21.45;;;;;;;18.29;74.07;99104.59;4973246;28;20406;-76
2022/08/02 02:03:38;;;;;;;32.33;21.00;;;;;;;18.34;73.88;99107.59;4970191;28;20581;-78
2022/08/02 02:06:06;;;;;;;28.00;20.13;;;;;;;18.12;74.34;99088.44;4955015;28;20133;-77
2022/08/02 02:08:36;;;;;;;28.48;20.63;;;;;;;18.27;74.52;99104.75;4969808;28;20426;-78
2022/08/02 02:11:03;;;;;;;32.00;20.45;;;;;;;18.34;74.56;99104.91;4969728;28;20050;-77
2022/08/02 02:13:30;;;;;;;27.20;20.95;;;;;;;18.36;74.30;99117.25;4955232;28;20043;-76
2022/08/02 02:15:57;;;;;;;27.50;20.40;;;;;;;18.16;74.43;99099.75;4976779;28;20097;-78
2022/08/02 02:18:25;;;;;;;26.55;20.63;;;;;;;18.30;74.46;99114.41;4972820;28;20043;-77
2022/08/02 02:20:53;;;;;;;28.83;20.10;;;;;;;18.22;74.64;99112.59;4988826;28;20054;-75
2022/08/02 02:23:19;;;;;;;31.42;20.80;;;;;;;18.35;74.48;99117.41;4972443;28;20126;-74
2022/08/02 02:25:46;;;;;;;34.85;21.38;;;;;;;18.45;74.00;99116.16;4972449;28;20049;-75
2022/08/02 02:28:28;;;;;;;29.48;21.35;;;;;;;18.45;73.66;99112.63;4972408;28;20046;-75
2022/08/02 02:31:08;;;;;;;27.02;21.05;;;;;;;18.49;73.45;99105.81;4972345;28;20149;-76
2022/08/02 02:33:43;;;;;;;30.02;19.60;;;;;;;18.64;73.56;99112.16;4988760;28;20043;-75
2022/08/02 02:36:09;;;;;;;25.85;20.45;;;;;;;18.70;72.60;99110.59;4955998;28;20541;-76
2022/08/02 02:38:37;;;;;;;29.40;20.02;;;;;;;18.68;72.55;99116.16;4973394;28;20165;-76
2022/08/02 02:41:05;;;;;;;27.60;20.40;;;;;;;18.54;72.96;99119.69;4976368;28;20352;-75
2022/08/02 02:43:32;;;;;;;29.33;20.27;;;;;;;18.56;73.20;99131.16;4992291;28;20126;-75
2022/08/02 02:46:01;;;;;;;28.33;19.63;;;;;;;18.45;73.39;99126.16;4977323;28;20130;-74
2022/08/02 02:48:28;;;;;;;34.08;22.10;;;;;;;18.39;73.58;99129.56;4992111;28;20042;-74
2022/08/02 02:50:55;;;;;;;33.17;21.67;;;;;;;18.50;73.49;99126.44;4976168;28;20185;-76
2022/08/02 02:53:22;;;;;;;31.58;22.17;;;;;;;18.56;73.65;99119.47;4975916;28;20047;-75
2022/08/02 02:55:48;;;;;;;32.40;22.65;;;;;;;18.66;72.97;99134.47;4992347;28;20050;-75
2022/08/02 02:58:15;;;;;;;28.92;21.02;;;;;;;18.50;73.08;99123.72;4992347;28;20054;-80
2022/08/02 03:03:27;;;;;;;33.92;21.60;;;;;;;18.55;73.78;99132.19;4992417;28;20486;-79
2022/08/02 03:05:53;;;;;;;31.98;22.10;;;;;;;18.53;73.84;99134.22;4976509;28;20446;-80
2022/08/02 03:08:19;;;;;;;29.67;21.10;;;;;;;18.60;73.69;99127.06;4992292;28;20490;-79
2022/08/02 03:10:46;;;;;;;30.88;20.70;;;;;;;18.65;73.51;99132.81;4975977;28;20043;-82
2022/08/02 03:13:12;;;;;;;29.85;20.48;;;;;;;18.72;73.32;99137.50;4975997;28;20391;-86
2022/08/02 03:15:39;;;;;;;26.77;18.10;;;;;;;18.61;72.52;99120.63;4976122;28;20046;-79
2022/08/02 03:18:07;;;;;;;24.73;18.25;;;;;;;18.89;71.82;99136.38;4977084;28;20536;-77
2022/08/02 03:20:33;;;;;;;26.35;18.23;;;;;;;18.96;71.62;99131.09;4992193;28;20046;-76
2022/08/02 03:22:59;;;;;;;31.60;18.33;;;;;;;18.83;71.51;99139.78;4975114;28;20046;-77
2022/08/02 03:25:25;;;;;;;23.63;17.73;;;;;;;18.71;71.85;99130.41;4976759;28;20417;-78
2022/08/02 03:27:51;;;;;;;25.08;17.75;;;;;;;18.69;71.71;99139.53;4959316;28;20041;-78
2022/08/02 03:30:16;;;;;;;24.38;18.58;;;;;;;18.50;72.28;99131.84;4976713;28;20058;-77
2022/08/02 03:32:46;;;;;;;28.80;20.50;;;;;;;18.56;72.47;99144.69;4992169;28;20454;-78
2022/08/02 03:35:13;;;;;;;;;;;;;;;18.66;72.83;99156.13;4975928;28;20149;-79
2022/08/02 03:37:40;;;;;;;31.90;19.38;;;;;;;18.59;72.52;99148.91;4991749;28;20385;-78
2022/08/02 03:40:08;;;;;;;27.10;19.67;;;;;;;18.64;72.54;99150.03;4959309;28;20213;-77
2022/08/02 03:42:34;;;;;;;36.63;21.52;;;;;;;18.71;72.32;99157.50;4991736;28;20126;-79
2022/08/02 03:45:02;;;;;;;31.70;21.63;;;;;;;18.72;72.76;99151.03;4992141;28;20070;-77
2022/08/02 03:47:29;;;;;;;30.88;21.58;;;;;;;18.80;73.09;99159.09;4975528;28;20104;-78
2022/08/02 03:49:57;;;;;;;33.00;23.02;;;;;;;18.82;72.98;99162.50;4975287;28;20054;-74
2022/08/02 03:52:25;;;;;;;34.78;22.73;;;;;;;18.62;73.21;99148.56;4990779;28;20145;-77
2022/08/02 03:54:51;;;;;;;32.25;22.10;;;;;;;18.61;73.71;99157.69;4976517;28;20051;-77
2022/08/02 03:57:17;;;;;;;38.33;22.17;;;;;;;18.43;74.15;99161.53;4976754;28;20129;-82
2022/08/02 03:59:44;;;;;;;36.47;22.45;;;;;;;18.45;74.35;99139.69;4959192;28;20576;-77
2022/08/02 04:02:11;;;;;;;30.70;22.30;;;;;;;18.67;73.98;99162.38;4991663;28;20049;-76
2022/08/02 04:04:37;;;;;;;32.58;21.02;;;;;;;18.69;73.59;99161.19;4958959;28;20486;-76
2022/08/02 04:07:03;;;;;;;30.15;21.92;;;;;;;18.60;73.25;99151.44;4973167;28;20039;-77
2022/08/02 04:09:30;;;;;;;30.70;21.05;;;;;;;18.63;73.05;99145.66;4972246;28;20054;-77
2022/08/02 04:11:55;;;;;;;30.92;20.98;;;;;;;18.78;73.32;99158.47;4972140;28;20047;-76
2022/08/02 04:14:22;;;;;;;30.00;19.42;;;;;;;18.89;73.00;99167.00;4956312;28;20073;-76
2022/08/02 04:16:55;;;;;;;28.38;19.85;;;;;;;18.96;72.26;99161.72;4972651;28;20141;-75
2022/08/02 04:19:26;;;;;;;29.02;20.27;;;;;;;18.91;72.53;99174.94;4972150;28;20137;-77
2022/08/02 04:21:53;;;;;;;28.30;19.27;;;;;;;18.81;72.51;99166.22;4974480;28;20050;-76
2022/08/02 04:24:26;;;;;;;31.23;18.90;;;;;;;18.89;72.42;99160.75;4974171;28;20078;-76
2022/08/02 04:26:57;;;;;;;27.08;19.45;;;;;;;19.01;72.13;99167.44;4990957;28;20508;-78
2022/08/02 04:29:24;;;;;;;27.70;19.17;;;;;;;19.14;71.88;99175.81;4974505;28;20039;-77
2022/08/02 04:31:51;;;;;;;26.48;19.33;;;;;;;19.22;71.08;99179.44;4990439;28;20137;-76
2022/08/02 04:34:17;;;;;;;25.77;18.83;;;;;;;19.14;71.16;99175.81;4990482;28;20049;-76
2022/08/02 04:36:42;;;;;;;23.40;17.98;;;;;;;19.26;71.09;99172.66;4974504;28;20133;-76
2022/08/02 04:39:08;;;;;;;28.83;19.55;;;;;;;19.43;70.98;99166.03;4975490;28;20043;-77
2022/08/02 04:41:42;;;;;;;30.70;18.70;;;;;;;19.51;70.30;99171.38;4990479;28;20120;-77
2022/08/02 04:44:08;;;;;;;23.67;17.35;;;;;;;19.63;70.02;99172.66;4974376;28;20434;-76
2022/08/02 04:46:38;;;;;;;22.63;17.55;;;;;;;19.85;69.22;99175.47;4975269;28;20050;-78
2022/08/02 04:49:05;;;;;;;21.45;16.65;;;;;;;19.89;69.01;99171.34;4990315;28;20043;-76
2022/08/02 04:51:38;;;;;;;22.27;17.02;;;;;;;20.11;68.33;99162.28;4975154;28;20550;-77
2022/08/02 04:54:07;;;;;;;20.67;16.67;;;;;;;20.20;67.41;99164.88;4975593;28;20195;-77
2022/08/02 04:56:32;;;;;;;22.63;16.55;;;;;;;20.21;67.41;99162.00;4990430;28;20102;-77
2022/08/02 04:58:58;;;;;;;21.88;16.55;;;;;;;20.15;67.29;99146.47;4975308;28;20050;-76
2022/08/02 05:01:24;;;;;;;20.52;16.70;;;;;;;20.35;67.10;99154.88;4975215;28;20043;-76
2022/08/02 05:03:50;;;;;;;24.23;16.85;;;;;;;20.25;66.90;99151.59;4989026;28;20494;-76
2022/08/02 05:06:18;;;;;;;18.48;15.00;;;;;;;20.28;66.79;99159.38;4990037;28;20386;-76
2022/08/02 05:08:45;;;;;;;19.23;15.45;;;;;;;20.44;66.56;99145.56;4990392;28;20403;-76
2022/08/02 05:11:11;;;;;;;19.92;14.60;;;;;;;20.73;65.34;99143.84;4973680;28;20038;-76
2022/08/02 05:13:36;;;;;;;22.42;15.63;;;;;;;20.73;65.21;99152.00;4975291;28;20101;-76
2022/08/02 05:16:03;;;;;;;20.80;14.93;;;;;;;20.90;64.85;99144.41;4973417;28;20050;-76
2022/08/02 05:18:29;;;;;;;18.42;14.90;;;;;;;21.23;63.84;99139.28;4973987;28;20053;-77
2022/08/02 05:20:55;;;;;;;16.13;13.35;;;;;;;21.31;62.83;99141.84;4973512;28;20051;-76
2022/08/02 05:23:21;;;;;;;17.83;13.65;;;;;;;21.41;62.64;99130.69;4975030;28;20046;-76
2022/08/02 05:25:47;;;;;;;16.60;14.30;;;;;;;21.20;63.06;99129.63;4973154;28;20049;-77
2022/08/02 05:28:13;;;;;;;19.83;14.90;;;;;;;21.21;63.15;99144.06;4989658;28;20545;-77
2022/08/02 05:30:39;;;;;;;20.63;13.52;;;;;;;21.20;63.01;99129.63;4973101;28;20065;-77
2022/08/02 05:33:05;;;;;;;15.60;14.00;;;;;;;21.44;63.33;99147.44;4973147;28;20070;-78
2022/08/02 05:35:32;;;;;;;17.70;13.35;;;;;;;21.65;62.05;99142.97;4989669;28;20046;-77
2022/08/02 05:37:57;;;;;;;16.52;13.88;;;;;;;21.61;61.90;99136.25;4974651;28;20138;-77
2022/08/02 05:40:23;;;;;;;20.15;14.75;;;;;;;21.73;61.83;99145.53;4957244;28;20490;-77
2022/08/02 05:42:49;;;;;;;21.33;14.43;;;;;;;22.05;61.40;99144.06;4974204;28;20046;-77
2022/08/02 05:45:15;;;;;;;19.58;14.30;;;;;;;22.31;60.53;99143.38;4973231;28;20398;-78
2022/08/02 05:47:41;;;;;;;19.20;14.82;;;;;;;22.42;60.36;99134.63;4974345;28;20054;-78
2022/08/02 05:50:09;;;;;;;19.20;14.85;;;;;;;22.55;59.43;99142.81;4989882;28;20058;-78
2022/08/02 05:52:45;;;;;;;15.57;13.67;;;;;;;22.21;60.39;99149.19;4972939;28;20054;-78
2022/08/02 05:55:25;;;;;;;18.58;14.00;;;;;;;22.27;60.63;99142.94;4974611;28;20113;-78
2022/08/02 05:58:12;;;;;;;17.23;14.68;;;;;;;22.38;59.77;99133.34;4974430;28;20046;-78
2022/08/02 06:00:40;;;;;;;21.02;14.55;;;;;;;22.71;59.88;99151.66;4973707;28;20053;-78
2022/08/02 06:03:30;;;;;;;17.67;14.88;;;;;;;22.49;59.29;99140.94;4956702;28;20039;-78
2022/08/02 06:06:03;;;;;;;16.95;13.80;;;;;;;22.40;59.99;99147.59;4972963;28;20073;-77
2022/08/02 06:08:36;;;;;;;23.60;13.68;;;;;;;22.69;60.05;99142.88;4956975;28;20051;-78
2022/08/02 06:11:05;;;;;;;24.63;14.60;;;;;;;22.91;59.02;99133.50;4973337;28;20050;-78
2022/08/02 06:13:32;;;;;;;16.13;13.55;;;;;;;23.15;58.70;99139.41;4972858;28;20070;-78
2022/08/02 06:15:59;;;;;;;20.27;14.63;;;;;;;23.24;57.67;99143.59;4972855;28;20042;-77
2022/08/02 06:18:28;;;;;;;17.58;13.65;;;;;;;23.62;57.48;99130.16;4972702;28;20418;-77
2022/08/02 06:20:57;;;;;;;18.65;14.55;;;;;;;23.93;56.80;99134.94;4988976;28;20430;-78
2022/08/02 06:23:25;;;;;;;16.25;13.40;;;;;;;23.98;56.12;99140.59;4973933;28;20042;-76
2022/08/02 06:25:52;;;;;;;17.02;13.55;;;;;;;23.89;56.52;99130.97;4956536;28;20152;-77
2022/08/02 06:28:18;;;;;;;18.10;13.48;;;;;;;24.02;56.69;99134.69;4972552;28;20077;-77
2022/08/02 06:30:45;;;;;;;15.13;13.50;;;;;;;23.80;56.19;99137.69;4974012;28;20081;-78
2022/08/02 06:33:12;;;;;;;14.88;13.13;;;;;;;23.66;56.30;99130.56;4972611;28;20469;-78
2022/08/02 06:36:04;;;;;;;16.25;12.88;;;;;;;23.55;57.03;99139.41;4973816;28;20502;-77
2022/08/02 06:38:40;;;;;;;19.40;13.85;;;;;;;23.83;56.90;99134.53;4972421;28;20486;-77
2022/08/02 06:41:09;;;;;;;16.85;13.55;;;;;;;24.13;56.16;99134.03;4972410;28;20093;-77
2022/08/02 06:43:49;;;;;;;15.02;13.43;;;;;;;24.33;55.49;99139.41;4972274;28;20046;-77
2022/08/02 06:46:15;;;;;;;17.42;13.95;;;;;;;24.46;54.82;99137.50;4972880;28;20383;-77
2022/08/02 06:48:41;;;;;;;16.00;13.48;;;;;;;24.71;54.76;99134.84;4973780;28;20162;-78
2022/08/02 06:51:07;;;;;;;17.60;13.75;;;;;;;24.94;53.96;99138.91;4973616;28;20053;-77
2022/08/02 06:53:33;;;;;;;18.55;13.30;;;;;;;25.01;52.61;99133.38;4956433;28;20042;-78
2022/08/02 06:55:59;;;;;;;20.15;13.80;;;;;;;24.43;54.01;99118.81;4988467;28;20506;-77
2022/08/02 06:58:25;;;;;;;21.13;14.10;;;;;;;24.69;54.69;99127.91;4955915;28;20057;-77
2022/08/02 07:00:51;;;;;;;16.73;12.77;;;;;;;24.67;54.46;99128.16;4956170;28;20093;-77
2022/08/02 07:03:16;;;;;;;13.98;12.15;;;;;;;24.72;54.14;99127.50;4956555;28;20050;-78
2022/08/02 07:05:47;;;;;;;15.60;12.30;;;;;;;24.78;54.60;99123.84;4973383;28;20045;-75
2022/08/02 07:08:16;;;;;;;18.10;12.38;;;;;;;25.25;53.83;99129.88;4972064;28;20053;-77
2022/08/02 07:10:42;;;;;;;17.27;13.18;;;;;;;25.75;53.34;99124.34;4972036;28;20475;-77
2022/08/02 07:13:09;;;;;;;21.35;12.95;;;;;;;26.10;51.44;99115.56;4972042;28;20073;-77
2022/08/02 07:15:36;;;;;;;18.48;13.27;;;;;;;26.37;50.82;99111.44;4972124;28;20225;-77
2022/08/02 07:18:02;;;;;;;20.88;12.68;;;;;;;26.86;50.41;99112.25;4988218;28;20126;-77
2022/08/02 07:20:28;;;;;;;19.45;12.07;;;;;;;27.16;49.31;99111.41;4956008;28;20038;-76
2022/08/02 07:22:54;;;;;;;14.60;11.95;;;;;;;27.04;48.27;99116.84;4988541;28;20061;-77
2022/08/02 07:25:22;;;;;;;18.00;11.32;;;;;;;26.05;50.27;99124.47;4972119;28;20050;-76
2022/08/02 07:27:51;;;;;;;15.35;11.48;;;;;;;25.78;50.73;99107.50;4974541;28;20047;-77
2022/08/02 07:30:17;;;;;;;16.35;11.35;;;;;;;25.58;51.75;99106.84;4959272;28;20050;-77
2022/08/02 07:32:43;;;;;;;21.45;11.50;;;;;;;25.80;51.51;99108.13;4975805;28;20074;-77
2022/08/02 07:35:09;;;;;;;15.90;11.68;;;;;;;26.14;50.88;99103.94;4991853;28;20466;-77
2022/08/02 07:37:37;;;;;;;18.85;10.73;;;;;;;26.01;50.59;99100.50;4975456;28;20046;-78
2022/08/02 07:40:05;;;;;;;13.10;10.77;;;;;;;26.10;50.12;99101.84;4991275;28;20117;-76
2022/08/02 07:42:31;;;;;;;12.75;10.32;;;;;;;25.96;50.33;99092.16;4975578;28;20069;-76
2022/08/02 07:44:57;;;;;;;13.80;10.43;;;;;;;25.63;51.23;99101.53;4943709;28;20050;-77
2022/08/02 07:47:23;;;;;;;14.95;11.20;;;;;;;25.54;51.39;99095.50;4991606;28;20047;-78
2022/08/02 07:49:49;;;;;;;14.60;11.10;;;;;;;25.63;51.61;99093.31;4975399;28;20047;-78
2022/08/02 07:52:15;;;;;;;15.70;10.65;;;;;;;25.87;51.14;99089.69;4991537;28;20055;-78
2022/08/02 07:54:40;;;;;;;13.70;10.32;;;;;;;25.95;50.57;99082.25;4975025;28;20039;-78
2022/08/02 07:57:06;;;;;;;12.20;10.50;;;;;;;26.36;50.15;99076.84;4974666;28;20043;-79
2022/08/02 07:59:32;;;;;;;16.50;10.60;;;;;;;26.68;48.96;99087.63;4991214;28;20047;-77
2022/08/02 08:01:58;;;;;;;14.15;10.48;;;;;;;26.51;48.31;99089.34;4976139;28;20101;-77
2022/08/02 08:04:23;;;;;;;22.90;10.38;;;;;;;26.40;49.09;99080.84;4991261;28;20062;-78
2022/08/02 08:06:51;;;;;;;16.70;10.77;;;;;;;26.61;48.73;99081.41;4975933;28;20402;-77
2022/08/02 08:09:18;;;;;;;11.30;9.82;;;;;;;26.76;48.84;99079.06;4991241;28;20043;-77
2022/08/02 08:11:43;;;;;;;11.13;9.98;;;;;;;26.87;48.29;99077.44;4990948;28;20054;-77
2022/08/02 08:14:09;;;;;;;17.27;10.55;;;;;;;26.69;47.74;99081.06;4975933;28;20047;-77
2022/08/02 08:16:35;;;;;;;12.23;10.38;;;;;;;26.38;48.52;99091.19;4976058;28;20062;-77
2022/08/02 08:19:01;;;;;;;20.20;10.18;;;;;;;26.42;48.75;99085.25;4991381;28;20046;-77
2022/08/02 08:21:28;;;;;;;22.27;10.60;;;;;;;26.81;47.18;99087.41;4990954;28;20046;-77
2022/08/02 08:23:55;;;;;;;15.32;9.90;;;;;;;27.14;47.02;99088.84;4975831;28;20494;-77
2022/08/02 08:26:21;;;;;;;14.32;8.90;;;;;;;27.54;46.42;99088.16;4958019;28;20043;-78
2022/08/02 08:28:47;;;;;;;11.73;8.85;;;;;;;27.48;45.57;99078.13;4974380;28;20051;-77
2022/08/02 08:31:12;;;;;;;11.85;8.57;;;;;;;27.51;45.40;99094.13;4990693;28;20055;-77
2022/08/02 08:33:38;;;;;;;14.45;9.20;;;;;;;27.62;45.39;99087.78;4974395;28;20517;-77
2022/08/02 08:36:04;;;;;;;11.02;8.75;;;;;;;27.76;45.58;99086.50;4990252;28;20055;-77
2022/08/02 08:38:30;;;;;;;15.27;9.25;;;;;;;28.09;44.13;99087.72;4975654;28;20561;-78
2022/08/02 08:40:56;;;;;;;15.32;8.95;;;;;;;28.30;44.21;99088.97;4990293;28;20065;-77
2022/08/02 08:43:22;;;;;;;11.77;8.38;;;;;;;28.48;42.71;99090.75;4974024;28;20047;-77
2022/08/02 08:45:48;;;;;;;16.02;8.70;;;;;;;28.48;42.61;99072.34;4974438;28;20564;-77
2022/08/02 08:48:16;;;;;;;14.27;9.90;;;;;;;28.73;42.40;99104.97;4958273;28;20133;-76
2022/08/02 08:50:51;;;;;;;16.13;9.00;;;;;;;28.69;42.14;99090.03;4990048;28;20388;-77
2022/08/02 08:53:20;;;;;;;10.27;8.98;;;;;;;28.83;42.18;99090.56;4974174;28;20039;-77
2022/08/02 08:55:47;;;;;;;14.82;9.10;;;;;;;28.75;42.01;99093.72;4975410;28;20455;-77
2022/08/02 08:58:13;;;;;;;17.73;9.25;;;;;;;28.26;42.56;99088.63;4973860;28;20047;-76
2022/08/02 09:00:40;;;;;;;15.93;8.73;;;;;;;27.86;43.68;99085.88;4974125;28;20038;-79
2022/08/02 09:03:09;;;;;;;15.75;9.45;;;;;;;28.17;42.92;99083.75;4975506;28;20074;-77
2022/08/02 09:05:37;;;;;;;16.70;9.20;;;;;;;28.20;42.77;99086.84;4973797;28;20097;-78
2022/08/02 09:08:04;;;;;;;21.50;8.55;;;;;;;28.73;42.78;99080.19;4958346;28;20042;-78
2022/08/02 09:10:41;;;;;;;16.47;8.40;;;;;;;29.17;41.14;99069.44;4974114;28;20047;-78
2022/08/02 09:13:11;;;;;;;12.50;8.50;;;;;;;29.26;40.47;99070.69;4989836;28;20047;-78
2022/08/02 09:15:38;;;;;;;18.10;9.20;;;;;;;29.22;40.33;99066.75;4990009;28;20475;-78
2022/08/02 09:18:06;;;;;;;19.55;9.38;;;;;;;29.63;40.33;99061.91;4974040;28;20399;-78
2022/08/02 09:20:33;;;;;;;11.55;9.05;;;;;;;29.87;39.53;99051.50;4974121;28;20050;-77
2022/08/02 09:23:10;;;;;;;10.00;8.52;;;;;;;30.17;39.28;99059.34;4989825;28;20051;-78
2022/08/02 09:25:37;;;;;;;16.02;8.75;;;;;;;30.94;38.20;99063.75;4974890;28;20042;-78
2022/08/02 09:28:03;;;;;;;14.10;9.15;;;;;;;31.35;36.92;99044.75;4989778;28;20046;-77
2022/08/02 09:30:30;;;;;;;14.25;7.82;;;;;;;31.75;37.08;99070.16;4989140;28;20059;-77
2022/08/02 09:32:56;;;;;;;14.93;8.85;;;;;;;31.99;35.53;99074.16;4989736;28;20062;-78
2022/08/02 09:35:35;;;;;;;13.57;8.55;;;;;;;32.01;35.34;99074.75;4974507;28;20047;-77
2022/08/02 09:38:12;;;;;;;16.13;8.45;;;;;;;30.95;36.82;99070.09;4973553;28;20189;-77
2022/08/02 09:40:39;;;;;;;16.58;8.90;;;;;;;29.58;38.44;99074.78;4956981;28;20532;-77
2022/08/02 09:43:07;;;;;;;19.47;8.90;;;;;;;29.13;39.52;99062.78;4974383;28;20173;-76
2022/08/02 09:45:34;;;;;;;11.75;8.45;;;;;;;28.84;39.80;99052.88;4957215;28;20047;-77
2022/08/02 09:48:07;;;;;;;10.88;8.07;;;;;;;29.16;39.32;99062.28;4989906;28;20442;-77
2022/08/02 09:50:37;;;;;;;15.63;7.97;;;;;;;29.51;38.68;99058.38;4973833;28;20042;-77
2022/08/02 09:53:03;;;;;;;12.00;8.20;;;;;;;29.95;38.33;99052.97;4974600;28;20057;-78
2022/08/02 09:55:29;;;;;;;15.13;7.95;;;;;;;30.28;37.11;99045.66;4973100;28;20046;-78
2022/08/02 09:57:55;;;;;;;13.68;7.60;;;;;;;30.58;37.20;99040.47;4974640;28;20042;-77
2022/08/02 10:00:21;;;;;;;10.50;8.45;;;;;;;31.03;35.98;99042.03;4989028;28;20073;-77
2022/08/02 10:03:06;;;;;;;11.75;7.80;;;;;;;31.12;35.89;99067.22;4989171;28;20050;-76
2022/08/02 10:05:50;;;;;;;26.38;6.30;;;;;;;30.80;36.00;99059.75;4972621;28;20047;-78
2022/08/02 10:08:16;;;;;;;20.23;6.38;;;;;;;30.51;36.15;99050.88;4973484;28;20042;-77
2022/08/02 10:10:43;;;;;;;15.98;5.50;;;;;;;30.15;35.99;99060.66;4989207;28;20042;-77
2022/08/02 10:13:09;;;;;;;8.45;5.60;;;;;;;29.70;36.98;99067.22;4972872;28;20050;-77
2022/08/02 10:15:36;;;;;;;9.18;5.82;;;;;;;29.10;37.63;99074.28;4956977;28;20050;-77
2022/08/02 10:18:06;;;;;;;20.67;6.10;;;;;;;28.63;38.79;99074.53;4974160;28;20518;-77
2022/08/02 10:20:43;;;;;;;16.58;6.88;;;;;;;27.91;40.89;99071.41;4972934;28;20406;-77
2022/08/02 10:23:12;;;;;;;31.15;7.78;;;;;;;27.05;44.12;99080.09;4972780;28;20444;-77
2022/08/02 10:25:39;;;;;;;24.45;8.57;;;;;;;25.97;48.93;99082.88;4973498;28;20490;-78
2022/08/02 10:28:09;;;;;;;29.13;9.15;;;;;;;25.45;52.12;99085.91;4973620;28;20149;-77
2022/08/02 10:30:38;;;;;;;15.35;8.07;;;;;;;25.00;52.69;99082.50;4972317;28;20057;-78
2022/08/02 10:33:07;;;;;;;19.88;8.32;;;;;;;24.66;54.18;99098.28;4972383;28;20066;-76
2022/08/02 10:35:37;;;;;;;17.70;8.68;;;;;;;24.56;54.70;99108.84;4956397;28;20043;-77
2022/08/02 10:38:06;;;;;;;15.95;8.70;;;;;;;24.33;55.89;99115.66;4972631;28;20141;-77
2022/08/02 10:40:42;;;;;;;17.73;9.07;;;;;;;24.23;56.11;99109.84;4972532;28;20070;-77
2022/08/02 10:43:08;;;;;;;21.80;8.80;;;;;;;24.14;56.21;99116.59;4972429;28;20035;-77
2022/08/02 10:45:34;;;;;;;19.23;9.23;;;;;;;24.11;56.45;99117.88;4972382;28;20106;-77
2022/08/02 10:48:07;;;;;;;18.95;9.48;;;;;;;24.08;57.25;99121.03;4972471;28;20081;-76
2022/08/02 10:50:45;;;;;;;14.35;9.60;;;;;;;23.96;57.83;99112.69;4973951;28;20042;-77
2022/08/02 10:53:24;;;;;;;17.37;10.03;;;;;;;23.98;57.38;99112.44;4972552;28;20491;-78
2022/08/02 10:55:52;;;;;;;18.45;9.30;;;;;;;23.73;57.24;99125.94;4972440;28;20081;-78
2022/08/02 10:58:20;;;;;;;18.98;8.82;;;;;;;23.70;56.55;99110.84;4988807;28;20065;-77
2022/08/02 11:00:47;;;;;;;21.25;8.68;;;;;;;23.38;56.15;99118.00;4973746;28;20053;-77
2022/08/02 11:03:28;;;;;;;17.48;8.80;;;;;;;23.64;56.77;99132.66;4975209;28;20198;-76
2022/08/02 11:06:03;;;;;;;15.00;8.60;;;;;;;23.47;56.44;99115.91;4976168;28;20430;-78
2022/08/02 11:08:29;;;;;;;12.38;8.55;;;;;;;23.62;56.40;99140.19;4977449;28;20506;-76
2022/08/02 11:11:08;;;;;;;15.57;8.55;;;;;;;23.73;56.49;99142.31;4959883;28;20121;-77
2022/08/02 11:14:07;;;;;;;13.05;8.25;;;;;;;23.86;56.86;99142.31;4992208;28;20091;-77
2022/08/02 11:17:04;;;;;;;14.30;9.40;;;;;;;23.93;56.72;99156.78;4976218;28;20489;-78
2022/08/02 11:19:31;;;;;;;20.55;9.52;;;;;;;24.02;57.47;99145.63;4958929;28;20133;-78
2022/08/02 11:22:09;;;;;;;12.23;9.35;;;;;;;24.23;56.90;99145.34;4975815;28;20043;-77
2022/08/02 11:24:38;;;;;;;;;;;;;;;24.35;56.42;99149.06;4976437;28;20043;-77
2022/08/02 11:27:07;;;;;;;14.55;10.25;;;;;;;24.55;56.18;99153.63;4991857;28;19922;-77
2022/08/02 11:29:40;;;;;;;14.38;9.60;;;;;;;24.85;55.85;99151.16;4975534;28;20078;-77